Andes — 5BFM3 — position and weather

sailwx.info

Track history (hours):
 
Tides and Currents Weather Stations Pressure Air Temp Water Temp Dewpoint Dewpoint Depression Visibility Wind Speed Wind Dir Waves Ship Positions

Andes

Last reported at 2017-May-15 14:22 UTC. Time now 2017-May-24 19:25 UTC.
Position N 17°34' W 060°47'.
Warning: this ship's position is 9 days out of date.

Length 182 m; draft 11.4 m.

Type: Ship. MMSI: 209394000.

Date/timePositionNaut miles runAvg speedWind from/ knotsBaromVisibWave heightAir tempDewpointWater temp
2017-May-15 14:22N 17°34' W 060°47'2512.8
2017-May-15 12:25N 17°49' W 061°08'613.2
2017-May-15 12:00N 17°52' W 061°13'613.0
2017-May-15 11:30N 17°56' W 061°18'  
2017-May-12 00:39N 22°59' W 079°20'613.0
2017-May-12 00:13N 23°01' W 079°26'413.1
2017-May-11 23:52N 23°02' W 079°31'613.7
2017-May-11 23:27N 23°04' W 079°37'613.6
2017-May-11 23:01N 23°06' W 079°43'713.2
2017-May-11 22:30N 23°09' W 079°50'10712.7
2017-May-11 14:05N 23°24' W 081°45'1114.7
2017-May-11 13:19N 23°24' W 081°57'  
2017-May-08 22:14N 29°27' W 094°51'311.1
2017-May-08 21:59N 29°29' W 094°52'511.1
2017-May-08 21:30N 29°34' W 094°55'510.7
2017-May-08 21:00N 29°39' W 094°58'5 9.0
2017-May-08 20:30N 29°42' W 095°01'4 7.2
2017-May-08 20:00N 29°45' W 095°04'3 5.5
2017-May-08 19:28N 29°44' W 095°07'2 5.5
2017-May-08 19:00N 29°45' W 095°10'1 2.2
2017-May-08 18:30N 29°45' W 095°11'  
2017-May-05 16:44N 29°45' W 095°11'0 1.5
2017-May-05 16:30N 29°45' W 095°12'0 1.0
2017-May-05 16:00N 29°45' W 095°11'3 6.2
2017-May-05 15:31N 29°44' W 095°08'3 6.4
2017-May-05 15:00N 29°46' W 095°04'  
Track history (hours):
 
Tides and Currents Weather Stations Pressure Air Temp Water Temp Dewpoint Dewpoint Depression Visibility Wind Speed Wind Dir Waves Ship Positions

Andes

Last reported at 2017-May-15 14:22 UTC. Time now 2017-May-24 19:25 UTC.
Position N 17°34' W 060°47'.
Warning: this ship's position is 9 days out of date.

Length 182 m; draft 11.4 m.

Type: Ship. MMSI: 209394000.

Date/timePositionNaut miles runAvg speedWind from/ knotsBaromVisibWave heightAir tempDewpointWater temp
2017-May-15 14:22N 17°34' W 060°47'2512.8
2017-May-15 12:25N 17°49' W 061°08'613.2
2017-May-15 12:00N 17°52' W 061°13'613.0
2017-May-15 11:30N 17°56' W 061°18'  
2017-May-12 00:39N 22°59' W 079°20'613.0
2017-May-12 00:13N 23°01' W 079°26'413.1
2017-May-11 23:52N 23°02' W 079°31'613.7
2017-May-11 23:27N 23°04' W 079°37'613.6
2017-May-11 23:01N 23°06' W 079°43'713.2
2017-May-11 22:30N 23°09' W 079°50'10712.7
2017-May-11 14:05N 23°24' W 081°45'1114.7
2017-May-11 13:19N 23°24' W 081°57'  
2017-May-08 22:14N 29°27' W 094°51'311.1
2017-May-08 21:59N 29°29' W 094°52'511.1
2017-May-08 21:30N 29°34' W 094°55'510.7
2017-May-08 21:00N 29°39' W 094°58'5 9.0
2017-May-08 20:30N 29°42' W 095°01'4 7.2
2017-May-08 20:00N 29°45' W 095°04'3 5.5
2017-May-08 19:28N 29°44' W 095°07'2 5.5
2017-May-08 19:00N 29°45' W 095°10'1 2.2
2017-May-08 18:30N 29°45' W 095°11'  
2017-May-05 16:44N 29°45' W 095°11'0 1.5
2017-May-05 16:30N 29°45' W 095°12'0 1.0
2017-May-05 16:00N 29°45' W 095°11'3 6.2
2017-May-05 15:31N 29°44' W 095°08'3 6.4
2017-May-05 15:00N 29°46' W 095°04'  

Dump ship's entire track history